Time;durP1;ratioP1;P1;durP2;ratioP2;P2;SDS_P1;SDS_P2;PMS_P1;PMS_P2;Temp;Humidity;BMP_temperature;BMP_pressure;BME280_temperature;BME280_humidity;BME280_pressure;Samples;Min_cycle;Max_cycle;Signal;HPM_P1;HPM_P2
2022/05/31 00:00:12;;;;;;;7.87;5.00;;;8.60;97.30;;;;;;5025480;28;20422;-82
2022/05/31 00:02:38;;;;;;;10.60;6.00;;;8.60;97.30;;;;;;5026012;28;20434;-82
2022/05/31 00:05:04;;;;;;;9.90;4.70;;;8.60;97.30;;;;;;5026191;28;20419;-82
2022/05/31 00:07:30;;;;;;;9.17;5.70;;;8.60;97.30;;;;;;5025070;28;20515;-82
2022/05/31 00:09:55;;;;;;;7.10;4.57;;;8.60;97.30;;;;;;5026076;28;20461;-81
2022/05/31 00:12:22;;;;;;;6.70;4.50;;;8.50;97.30;;;;;;5025912;28;20184;-82
2022/05/31 00:14:48;;;;;;;11.73;4.10;;;8.50;97.30;;;;;;5043472;28;20185;-82
2022/05/31 00:17:13;;;;;;;6.37;3.80;;;8.50;97.30;;;;;;5025111;28;21000;-82
2022/05/31 00:19:39;;;;;;;7.33;5.73;;;8.50;97.30;;;;;;5043302;28;20418;-82
2022/05/31 00:22:08;;;;;;;6.37;3.87;;;8.60;97.30;;;;;;5025192;28;20229;-82
2022/05/31 00:24:34;;;;;;;5.97;4.00;;;8.50;97.30;;;;;;5026066;28;20434;-82
2022/05/31 00:27:02;;;;;;;6.10;3.90;;;8.50;97.30;;;;;;5025202;28;20817;-82
2022/05/31 00:29:28;;;;;;;8.43;4.60;;;8.40;97.30;;;;;;5025836;28;20466;-82
2022/05/31 00:31:54;;;;;;;7.20;4.17;;;8.40;97.30;;;;;;5022247;28;20423;-79
2022/05/31 00:34:19;;;;;;;6.93;4.77;;;8.30;97.30;;;;;;5019121;28;20927;-80
2022/05/31 00:36:48;;;;;;;10.77;5.00;;;8.30;97.30;;;;;;5019656;28;20306;-79
2022/05/31 00:39:14;;;;;;;13.27;5.43;;;8.20;97.30;;;;;;5019503;28;20317;-80
2022/05/31 00:41:40;;;;;;;8.27;4.57;;;8.20;97.30;;;;;;5022987;28;20419;-80
2022/05/31 00:44:10;;;;;;;8.67;4.80;;;8.20;97.30;;;;;;5022801;28;20226;-80
2022/05/31 00:46:44;;;;;;;6.73;4.60;;;8.20;97.30;;;;;;5041141;28;20427;-80
2022/05/31 00:49:13;;;;;;;8.40;5.03;;;8.20;97.30;;;;;;5041653;28;20403;-80
2022/05/31 00:51:44;;;;;;;9.30;5.30;;;8.20;97.30;;;;;;5023353;28;20466;-80
2022/05/31 00:54:17;;;;;;;7.17;4.83;;;8.20;97.30;;;;;;5023095;28;20419;-80
2022/05/31 00:56:44;;;;;;;10.03;5.20;;;8.30;97.30;;;;;;5022387;28;20474;-80
2022/05/31 00:59:31;;;;;;;8.63;5.50;;;8.30;97.30;;;;;;5023235;28;20464;-81
2022/05/31 01:01:57;;;;;;;11.13;4.50;;;8.30;97.30;;;;;;5022416;28;20502;-81
2022/05/31 01:04:47;;;;;;;7.50;5.50;;;8.40;97.30;;;;;;5022163;28;20528;-79
2022/05/31 01:07:12;;;;;;;7.17;4.40;;;8.40;97.30;;;;;;5021869;28;20522;-80
2022/05/31 01:09:38;;;;;;;5.83;4.40;;;8.40;97.30;;;;;;5022732;28;20423;-81
2022/05/31 01:12:04;;;;;;;11.60;5.00;;;8.40;97.30;;;;;;5023065;28;20181;-80
2022/05/31 01:14:31;;;;;;;9.10;4.80;;;8.40;97.30;;;;;;5022880;28;20184;-80
2022/05/31 01:16:58;;;;;;;10.73;4.80;;;8.40;97.30;;;;;;5022244;28;20526;-80
2022/05/31 01:22:16;;;;;;;10.47;4.90;;;8.40;97.30;;;;;;5016458;28;20471;-81
2022/05/31 01:24:52;;;;;;;7.67;4.70;;;8.40;97.30;;;;;;5022994;28;20415;-80
2022/05/31 01:27:58;;;;;;;6.53;4.87;;;8.50;97.30;;;;;;5022571;28;20257;-80
2022/05/31 01:30:25;;;;;;;15.27;6.10;;;8.50;97.30;;;;;;4991948;28;20498;-80
2022/05/31 01:33:06;;;;;;;9.87;5.37;;;8.50;97.30;;;;;;5021940;28;20415;-80
2022/05/31 01:35:34;;;;;;;6.50;5.20;;;8.50;97.30;;;;;;5022106;28;20826;-81
2022/05/31 01:38:20;;;;;;;7.10;5.27;;;8.60;97.30;;;;;;5022377;28;20549;-80
2022/05/31 01:40:58;;;;;;;8.40;5.17;;;8.60;97.30;;;;;;5022287;28;20417;-80
2022/05/31 01:43:23;;;;;;;7.87;5.07;;;8.60;97.30;;;;;;5021971;28;20411;-80
2022/05/31 01:46:04;;;;;;;7.50;4.40;;;8.60;97.30;;;;;;5021917;28;20893;-80
2022/05/31 01:48:31;;;;;;;9.57;5.10;;;8.60;97.30;;;;;;5039054;28;20245;-80
2022/05/31 01:50:57;;;;;;;9.47;4.80;;;8.60;97.30;;;;;;5021197;28;20481;-80
2022/05/31 01:53:23;;;;;;;6.50;4.20;;;8.60;97.30;;;;;;5020974;28;20441;-80
2022/05/31 01:55:49;;;;;;;9.13;4.67;;;8.70;97.30;;;;;;5021238;28;20432;-80
2022/05/31 01:58:22;;;;;;;7.00;4.33;;;8.70;97.30;;;;;;5021405;28;20331;-80
2022/05/31 02:00:49;;;;;;;8.03;4.50;;;8.70;97.30;;;;;;5021265;28;20411;-81
2022/05/31 02:03:17;;;;;;;10.87;4.83;;;8.70;97.30;;;;;;5020080;28;20482;-81
2022/05/31 02:05:45;;;;;;;9.97;4.97;;;8.70;97.30;;;;;;5020564;28;20431;-80
2022/05/31 02:08:11;;;;;;;7.87;5.10;;;8.60;97.30;;;;;;5020988;28;20853;-80
2022/05/31 02:10:38;;;;;;;10.03;4.40;;;8.60;97.30;;;;;;5021168;28;20415;-80
2022/05/31 02:13:04;;;;;;;9.33;5.00;;;8.60;97.30;;;;;;5020017;28;20790;-80
2022/05/31 02:15:30;;;;;;;8.83;4.97;;;8.50;97.30;;;;;;5020458;28;20419;-80
2022/05/31 02:17:55;;;;;;;7.23;4.87;;;8.50;97.30;;;;;;5020574;28;20204;-80
2022/05/31 02:20:21;;;;;;;7.87;4.50;;;8.50;97.30;;;;;;5020684;28;20423;-80
2022/05/31 02:22:46;;;;;;;6.30;4.70;;;8.50;97.30;;;;;;5019519;28;20277;-81
2022/05/31 02:25:12;;;;;;;9.13;4.50;;;8.40;97.30;;;;;;5021871;28;20169;-80
2022/05/31 02:27:38;;;;;;;6.40;4.90;;;8.40;97.30;;;;;;5021820;28;20192;-80
2022/05/31 02:30:04;;;;;;;5.60;4.50;;;8.40;97.30;;;;;;5022344;28;20180;-80
2022/05/31 02:32:30;;;;;;;6.77;4.13;;;8.40;97.30;;;;;;5038929;28;20222;-80
2022/05/31 02:34:55;;;;;;;6.40;4.43;;;8.30;97.30;;;;;;5022229;28;20427;-80
2022/05/31 02:37:21;;;;;;;7.20;4.80;;;8.30;97.30;;;;;;5019635;28;20299;-80
2022/05/31 02:39:47;;;;;;;6.03;4.67;;;8.20;97.30;;;;;;5019292;28;20175;-80
2022/05/31 02:42:14;;;;;;;7.67;5.20;;;8.20;97.30;;;;;;5018592;28;20415;-81
2022/05/31 02:44:40;;;;;;;5.93;4.40;;;8.20;97.30;;;;;;5015556;28;20411;-80
2022/05/31 02:47:07;;;;;;;7.93;4.30;;;8.20;97.30;;;;;;5015538;28;20438;-80
2022/05/31 02:49:35;;;;;;;6.67;4.67;;;8.20;97.30;;;;;;5033359;28;20858;-80
2022/05/31 02:52:01;;;;;;;6.30;5.40;;;8.10;97.30;;;;;;5015816;28;20419;-80
2022/05/31 02:54:27;;;;;;;10.47;4.50;;;8.10;97.30;;;;;;5015839;28;20477;-79
2022/05/31 02:56:53;;;;;;;8.73;4.83;;;8.10;97.30;;;;;;5015868;28;20303;-80
2022/05/31 02:59:19;;;;;;;9.43;5.07;;;8.00;97.30;;;;;;5015818;28;20450;-81
2022/05/31 03:01:45;;;;;;;8.97;5.97;;;8.00;97.30;;;;;;5034350;28;20183;-80
2022/05/31 03:04:12;;;;;;;8.93;4.40;;;8.00;97.30;;;;;;5016211;28;20187;-80
2022/05/31 03:06:38;;;;;;;11.57;5.40;;;8.00;97.30;;;;;;5019182;28;20458;-79
2022/05/31 03:09:04;;;;;;;8.17;4.93;;;8.00;97.30;;;;;;5018696;28;20438;-80
2022/05/31 03:11:37;;;;;;;6.97;5.07;;;7.90;97.30;;;;;;5018515;28;20786;-80
2022/05/31 03:14:08;;;;;;;7.03;5.30;;;7.90;97.30;;;;;;5018697;28;20924;-80
2022/05/31 03:16:37;;;;;;;8.67;5.00;;;7.90;97.30;;;;;;5018437;28;20815;-81
2022/05/31 03:19:06;;;;;;;8.80;5.13;;;7.90;97.30;;;;;;5018793;28;20438;-80
2022/05/31 03:21:39;;;;;;;13.43;5.40;;;7.90;97.30;;;;;;5036657;28;20411;-80
2022/05/31 03:24:12;;;;;;;7.20;4.80;;;7.90;97.30;;;;;;5015862;28;20460;-80
2022/05/31 03:26:40;;;;;;;6.20;4.70;;;7.90;97.30;;;;;;5016244;28;20539;-79
2022/05/31 03:29:06;;;;;;;8.67;5.50;;;7.90;97.30;;;;;;5018165;28;20447;-80
2022/05/31 03:31:32;;;;;;;10.20;5.53;;;7.90;97.30;;;;;;5018506;28;20416;-81
2022/05/31 03:33:58;;;;;;;15.97;7.87;;;7.90;97.30;;;;;;5016301;28;20826;-80
2022/05/31 03:36:24;;;;;;;7.37;5.00;;;7.90;97.30;;;;;;5016217;28;20201;-80
2022/05/31 03:38:49;;;;;;;13.00;6.10;;;7.90;97.30;;;;;;5037113;28;20422;-80
2022/05/31 03:41:15;;;;;;;8.90;6.23;;;7.90;97.30;;;;;;5037478;28;20187;-80
2022/05/31 03:43:42;;;;;;;8.70;4.90;;;7.90;97.30;;;;;;5037462;28;20177;-81
2022/05/31 03:46:13;;;;;;;8.43;5.00;;;7.90;97.30;;;;;;5035550;28;20201;-80
2022/05/31 03:48:39;;;;;;;16.67;6.57;;;7.90;97.30;;;;;;5034746;28;20419;-81
2022/05/31 03:51:08;;;;;;;10.50;5.90;;;7.90;97.30;;;;;;5035027;28;20921;-80
2022/05/31 03:53:34;;;;;;;8.97;5.23;;;7.90;97.30;;;;;;5035745;28;20193;-80
2022/05/31 03:56:05;;;;;;;9.27;5.50;;;8.00;97.30;;;;;;5035411;28;20450;-80
2022/05/31 03:58:32;;;;;;;9.60;6.10;;;8.00;97.30;;;;;;5035226;28;20502;-81
2022/05/31 04:00:59;;;;;;;10.97;6.50;;;8.00;97.30;;;;;;5034654;28;20419;-81
2022/05/31 04:03:25;;;;;;;9.63;5.63;;;8.00;97.30;;;;;;5034931;28;20916;-80
2022/05/31 04:05:52;;;;;;;9.47;5.60;;;8.10;97.30;;;;;;5035239;28;20787;-80
2022/05/31 04:08:19;;;;;;;9.33;5.70;;;8.10;97.30;;;;;;5034922;28;20434;-80
2022/05/31 04:10:45;;;;;;;7.43;5.27;;;8.10;97.30;;;;;;5034991;28;20416;-80
2022/05/31 04:13:13;;;;;;;11.60;5.27;;;8.10;97.30;;;;;;5034706;28;20423;-81
2022/05/31 04:15:43;;;;;;;9.23;5.90;;;8.10;97.30;;;;;;5036974;28;20482;-82
2022/05/31 04:18:11;;;;;;;7.60;5.40;;;8.10;97.30;;;;;;5036031;28;21045;-81
2022/05/31 04:20:41;;;;;;;7.77;5.10;;;8.10;97.30;;;;;;5037753;28;20428;-82
2022/05/31 04:26:06;;;;;;;10.63;6.13;;;8.20;97.30;;;;;;5037736;28;20441;-81
2022/05/31 04:28:32;;;;;;;11.27;6.70;;;8.20;97.30;;;;;;5030048;28;20427;-81
2022/05/31 04:30:57;;;;;;;10.80;6.80;;;8.20;97.30;;;;;;5024878;28;20510;-82
2022/05/31 04:33:23;;;;;;;11.27;6.57;;;8.20;97.30;;;;;;5025829;28;20181;-81
2022/05/31 04:36:00;;;;;;;10.57;6.10;;;8.20;97.30;;;;;;5023523;28;20282;-82
2022/05/31 04:38:26;;;;;;;13.77;6.63;;;8.30;97.30;;;;;;5023151;28;20209;-81
2022/05/31 04:40:52;;;;;;;16.00;7.13;;;8.30;97.30;;;;;;5024722;28;20435;-81
2022/05/31 04:43:18;;;;;;;14.90;6.80;;;8.30;97.30;;;;;;5022092;28;20768;-81
2022/05/31 04:45:43;;;;;;;13.80;7.50;;;8.30;97.30;;;;;;5032459;28;20372;-81
2022/05/31 04:48:12;;;;;;;14.40;8.07;;;8.40;97.30;;;;;;5033518;28;20303;-81
2022/05/31 04:50:38;;;;;;;15.63;7.30;;;8.40;97.30;;;;;;5032715;28;20325;-82
2022/05/31 04:53:04;;;;;;;12.10;7.10;;;8.40;97.30;;;;;;5033356;28;20465;-82
2022/05/31 04:55:30;;;;;;;10.33;6.70;;;8.50;97.30;;;;;;5027575;28;20519;-81
2022/05/31 04:57:55;;;;;;;14.37;8.67;;;8.60;97.30;;;;;;5016513;28;20211;-82
2022/05/31 05:00:23;;;;;;;16.47;7.20;;;8.60;97.30;;;;;;5010804;28;20181;-81
2022/05/31 05:02:48;;;;;;;13.30;6.83;;;8.70;97.30;;;;;;5010741;28;20500;-81
2022/05/31 05:05:14;;;;;;;16.10;7.43;;;8.80;97.30;;;;;;5016509;28;20492;-80
2022/05/31 05:07:44;;;;;;;14.50;7.73;;;8.90;97.30;;;;;;5016154;28;20193;-81
2022/05/31 05:10:12;;;;;;;10.87;6.87;;;9.00;97.30;;;;;;5013735;28;20227;-81
2022/05/31 05:12:38;;;;;;;14.57;6.97;;;9.10;97.30;;;;;;5012690;28;20463;-81
2022/05/31 05:15:06;;;;;;;13.70;6.70;;;9.20;97.30;;;;;;5014104;28;20413;-83
2022/05/31 05:17:43;;;;;;;14.37;6.17;;;9.20;97.30;;;;;;5014176;28;20464;-83
2022/05/31 05:20:13;;;;;;;16.37;7.20;;;9.20;97.30;;;;;;5020065;28;20412;-81
2022/05/31 05:22:45;;;;;;;11.83;6.30;;;9.30;97.30;;;;;;5021425;28;20660;-81
2022/05/31 05:25:24;;;;;;;10.93;6.30;;;9.30;97.30;;;;;;5021154;28;20408;-82
2022/05/31 05:27:54;;;;;;;13.83;6.90;;;9.40;97.30;;;;;;5019441;28;20412;-82
2022/05/31 05:38:02;;;;;;;17.00;8.03;;;9.70;97.30;;;;;;5050435;28;20855;-82
2022/05/31 05:40:27;;;;;;;13.33;7.10;;;9.80;97.30;;;;;;5055406;28;20411;-81
2022/05/31 05:42:53;;;;;;;14.13;6.57;;;9.80;97.30;;;;;;5056035;28;20805;-82
2022/05/31 05:45:18;;;;;;;17.87;7.20;;;9.90;97.30;;;;;;5054206;28;20176;-81
2022/05/31 05:47:45;;;;;;;12.87;7.20;;;9.90;97.30;;;;;;5033477;28;20183;-82
2022/05/31 05:50:11;;;;;;;11.37;7.77;;;10.00;97.30;;;;;;5036583;28;20188;-81
2022/05/31 05:52:38;;;;;;;14.00;7.40;;;10.00;97.30;;;;;;5039762;28;20417;-81
2022/05/31 05:55:04;;;;;;;11.90;6.73;;;10.10;97.30;;;;;;5033481;28;20424;-82
2022/05/31 05:57:30;;;;;;;13.90;8.10;;;10.20;97.30;;;;;;5034901;28;20459;-82
2022/05/31 05:59:56;;;;;;;10.17;6.30;;;10.30;97.30;;;;;;5037727;28;20503;-82
2022/05/31 06:02:29;;;;;;;10.53;6.73;;;10.30;97.30;;;;;;5038902;28;20943;-82
2022/05/31 06:05:03;;;;;;;10.50;6.80;;;10.40;97.30;;;;;;5038230;28;20178;-82
2022/05/31 06:07:32;;;;;;;15.20;6.50;;;10.40;97.30;;;;;;5038225;28;20438;-82
2022/05/31 06:10:24;;;;;;;9.80;6.13;;;10.50;97.30;;;;;;5040037;28;20534;-82
2022/05/31 06:13:02;;;;;;;12.83;6.70;;;10.50;97.30;;;;;;5034919;28;20458;-82
2022/05/31 06:15:33;;;;;;;10.93;5.93;;;10.60;97.30;;;;;;5040304;28;20407;-82
2022/05/31 06:18:04;;;;;;;9.00;5.40;;;10.70;97.30;;;;;;5038298;28;20453;-81
2022/05/31 06:20:30;;;;;;;18.83;5.60;;;10.80;97.30;;;;;;5039110;28;20867;-82
2022/05/31 06:22:57;;;;;;;10.60;6.33;;;10.90;97.30;;;;;;5039278;28;20441;-82
2022/05/31 06:25:23;;;;;;;11.17;5.90;;;11.00;97.30;;;;;;5037165;28;20177;-81
2022/05/31 06:27:50;;;;;;;16.33;6.87;;;11.10;97.30;;;;;;5037387;28;20486;-82
2022/05/31 06:30:16;;;;;;;9.30;6.10;;;11.10;97.30;;;;;;5036482;28;20465;-82
2022/05/31 06:32:42;;;;;;;11.70;6.00;;;11.20;97.30;;;;;;5035590;28;20415;-81
2022/05/31 06:35:08;;;;;;;10.70;5.97;;;11.20;97.30;;;;;;5035407;28;20421;-83
2022/05/31 06:37:34;;;;;;;14.40;6.00;;;11.30;97.30;;;;;;5036023;28;20213;-82
2022/05/31 06:39:59;;;;;;;8.90;5.20;;;11.40;97.30;;;;;;5035865;28;20421;-80
2022/05/31 06:42:25;;;;;;;9.17;5.87;;;11.50;97.30;;;;;;5037317;28;20455;-81
2022/05/31 06:44:51;;;;;;;7.90;4.80;;;11.60;97.30;;;;;;5036560;28;20165;-82
2022/05/31 06:47:16;;;;;;;10.17;5.50;;;11.60;97.30;;;;;;5036596;28;20744;-82
2022/05/31 06:49:42;;;;;;;10.03;4.90;;;11.70;97.30;;;;;;5035340;28;20662;-82
2022/05/31 06:57:41;;;;;;;8.90;4.80;;;12.10;97.30;;;;;;5035512;28;20552;-82
2022/05/31 07:00:11;;;;;;;11.20;4.90;;;12.30;97.30;;;;;;5035119;28;20411;-82
2022/05/31 07:02:37;;;;;;;7.07;3.87;;;12.40;97.30;;;;;;5035830;28;20423;-81
2022/05/31 07:05:03;;;;;;;11.03;4.00;;;12.50;97.30;;;;;;5036870;28;20415;-82
2022/05/31 07:07:28;;;;;;;7.10;3.57;;;12.70;97.30;;;;;;5034959;28;20431;-82
2022/05/31 07:09:54;;;;;;;7.47;4.00;;;12.80;97.30;;;;;;5030527;28;20946;-83
2022/05/31 07:12:20;;;;;;;8.30;3.83;;;12.90;97.30;;;;;;5029903;28;20184;-83
2022/05/31 07:14:46;;;;;;;5.93;3.83;;;13.00;97.30;;;;;;5029733;28;20190;-82
2022/05/31 07:17:11;;;;;;;7.70;3.47;;;13.20;97.30;;;;;;5029800;28;20219;-82
2022/05/31 07:19:38;;;;;;;12.37;3.87;;;13.30;97.30;;;;;;5030914;28;20411;-82
2022/05/31 07:22:04;;;;;;;5.20;3.67;;;13.40;97.30;;;;;;5030811;28;20204;-82
2022/05/31 07:24:31;;;;;;;11.73;4.27;;;13.50;97.10;;;;;;5030980;28;20427;-82
2022/05/31 07:26:56;;;;;;;8.50;4.40;;;13.60;97.00;;;;;;5031630;28;20291;-82
2022/05/31 07:29:22;;;;;;;6.37;3.47;;;13.70;95.90;;;;;;5031115;28;20458;-84
2022/05/31 07:31:48;;;;;;;6.70;3.83;;;13.80;95.90;;;;;;5029922;28;20208;-82
2022/05/31 07:34:15;;;;;;;8.23;3.83;;;13.90;95.40;;;;;;5029364;28;20246;-82
2022/05/31 07:36:42;;;;;;;5.90;3.50;;;14.00;95.50;;;;;;5025908;28;20279;-83
2022/05/31 07:39:18;;;;;;;7.63;3.97;;;14.10;95.30;;;;;;5009563;28;20427;-82
2022/05/31 07:41:45;;;;;;;7.17;3.87;;;14.10;95.20;;;;;;5009687;28;20801;-82
2022/05/31 07:44:11;;;;;;;5.50;3.70;;;14.20;94.30;;;;;;5010167;28;20428;-82
2022/05/31 07:46:37;;;;;;;8.87;4.30;;;14.20;94.10;;;;;;5010775;28;20528;-83
2022/05/31 07:49:03;;;;;;;5.97;3.60;;;14.20;94.40;;;;;;5010697;28;20573;-83
2022/05/31 07:51:29;;;;;;;3.43;3.10;;;14.20;95.10;;;;;;5010361;28;20416;-83
2022/05/31 07:53:55;;;;;;;5.10;3.70;;;14.20;94.60;;;;;;5012212;28;20242;-82
2022/05/31 07:56:21;;;;;;;5.63;4.20;;;14.30;94.80;;;;;;5013860;28;20200;-82
2022/05/31 07:58:48;;;;;;;11.00;3.80;;;14.40;94.30;;;;;;5012868;28;20459;-83
2022/05/31 08:01:18;;;;;;;11.13;4.37;;;14.50;95.00;;;;;;5012617;28;20420;-82
2022/05/31 08:03:44;;;;;;;4.63;3.87;;;14.70;94.80;;;;;;5012335;28;20408;-83
2022/05/31 08:06:18;;;;;;;6.30;4.57;;;14.80;94.60;;;;;;5012880;28;20482;-83
2022/05/31 08:08:45;;;;;;;6.33;3.83;;;15.00;94.00;;;;;;5012634;28;20714;-82
2022/05/31 08:11:24;;;;;;;8.40;4.87;;;15.00;94.00;;;;;;5012326;28;20480;-83
2022/05/31 08:13:51;;;;;;;6.93;4.10;;;15.20;95.00;;;;;;5012077;28;20419;-82
2022/05/31 08:16:19;;;;;;;6.07;4.23;;;15.30;94.70;;;;;;5011887;28;20539;-82
2022/05/31 08:18:46;;;;;;;6.00;4.03;;;15.40;94.30;;;;;;5011441;28;20463;-83
2022/05/31 08:21:27;;;;;;;5.47;4.17;;;15.40;93.80;;;;;;5012154;28;20814;-83
2022/05/31 08:23:58;;;;;;;7.50;4.20;;;15.50;93.50;;;;;;5011953;28;20416;-82
2022/05/31 08:26:24;;;;;;;6.00;3.50;;;15.60;92.80;;;;;;5011799;28;20438;-83
2022/05/31 08:28:50;;;;;;;7.40;3.93;;;15.70;93.10;;;;;;5011546;28;21025;-82
2022/05/31 08:31:24;;;;;;;8.10;4.63;;;15.80;93.10;;;;;;5011393;28;20420;-83
2022/05/31 08:33:49;;;;;;;8.23;4.87;;;15.80;92.70;;;;;;5011392;28;20949;-82
2022/05/31 08:36:15;;;;;;;7.83;4.07;;;15.80;92.30;;;;;;5011010;28;20467;-82
2022/05/31 08:38:42;;;;;;;16.70;4.83;;;15.80;91.80;;;;;;5030818;28;20205;-83
2022/05/31 08:41:50;;;;;;;6.53;4.50;;;15.90;92.80;;;;;;5031008;28;20544;-83
2022/05/31 08:44:28;;;;;;;8.03;4.87;;;16.00;92.70;;;;;;5025781;28;20407;-83
2022/05/31 08:47:18;;;;;;;9.80;4.30;;;16.00;91.90;;;;;;5030871;28;20508;-82
2022/05/31 08:52:48;;;;;;;5.13;3.73;;;16.20;91.90;;;;;;5032905;28;20423;-83
2022/05/31 08:58:15;;;;;;;8.30;4.47;;;16.50;91.90;;;;;;5032950;28;20462;-83
2022/05/31 09:00:43;;;;;;;7.00;3.80;;;16.60;91.00;;;;;;5031763;28;20408;-83
2022/05/31 09:03:34;;;;;;;7.30;4.30;;;16.60;91.00;;;;;;5030631;28;20415;-83
2022/05/31 09:06:08;;;;;;;9.30;3.60;;;16.70;90.60;;;;;;5030794;28;20546;-83
2022/05/31 09:08:40;;;;;;;8.70;4.27;;;16.80;91.50;;;;;;5030270;28;20410;-83
2022/05/31 09:11:11;;;;;;;14.07;4.10;;;16.90;90.70;;;;;;5030553;28;20450;-83
2022/05/31 09:14:04;;;;;;;6.10;4.03;;;17.00;90.80;;;;;;5030092;28;20454;-83
2022/05/31 09:16:36;;;;;;;5.73;3.80;;;17.00;90.80;;;;;;5030077;28;20447;-83
2022/05/31 09:19:05;;;;;;;4.47;3.30;;;17.20;90.70;;;;;;5030239;28;20424;-83
2022/05/31 09:21:43;;;;;;;7.13;3.57;;;17.20;89.50;;;;;;5030082;28;20905;-83
2022/05/31 09:24:15;;;;;;;6.50;3.47;;;17.30;89.20;;;;;;5030305;28;20426;-83
2022/05/31 09:27:11;;;;;;;7.43;3.90;;;17.40;88.80;;;;;;5030800;28;20832;-83
2022/05/31 09:29:55;;;;;;;7.53;4.00;;;17.40;88.60;;;;;;5022757;28;20432;-83
2022/05/31 09:32:47;;;;;;;5.63;3.73;;;17.50;89.20;;;;;;5030883;28;20846;-83
2022/05/31 09:35:47;;;;;;;7.70;3.33;;;17.70;89.40;;;;;;5030428;28;21063;-83
2022/05/31 09:38:43;;;;;;;6.47;3.50;;;17.80;88.40;;;;;;5014964;28;20550;-83
2022/05/31 09:41:24;;;;;;;9.30;3.50;;;18.00;88.20;;;;;;5010788;28;20421;-84
2022/05/31 09:44:13;;;;;;;4.13;3.50;;;18.10;87.30;;;;;;5010510;28;20432;-84
2022/05/31 09:47:11;;;;;;;9.13;4.10;;;18.20;87.70;;;;;;5010774;28;20431;-84
2022/05/31 09:49:43;;;;;;;8.07;4.33;;;18.30;84.70;;;;;;5009178;28;20428;-84
2022/05/31 09:52:30;;;;;;;5.37;3.67;;;18.40;85.50;;;;;;5010397;28;20416;-86
2022/05/31 09:58:17;;;;;;;8.00;3.47;;;18.50;84.90;;;;;;5011819;28;20518;-84
2022/05/31 10:01:03;;;;;;;4.83;3.40;;;18.50;84.60;;;;;;5010212;28;20470;-84
2022/05/31 10:03:44;;;;;;;7.13;3.30;;;18.50;85.40;;;;;;5010241;28;20909;-84
2022/05/31 10:06:23;;;;;;;6.77;3.90;;;18.60;86.30;;;;;;5010203;28;20449;-84
2022/05/31 10:08:54;;;;;;;6.00;3.60;;;18.60;86.20;;;;;;5010466;28;20455;-84
2022/05/31 10:11:43;;;;;;;6.70;3.37;;;18.50;85.50;;;;;;5010180;28;20417;-84
2022/05/31 10:14:33;;;;;;;6.73;3.73;;;18.40;85.80;;;;;;5010044;28;20427;-84
2022/05/31 10:17:27;;;;;;;4.83;3.80;;;18.20;85.30;;;;;;5009664;28;20477;-85
2022/05/31 10:20:16;;;;;;;7.33;3.40;;;18.10;85.00;;;;;;5009805;28;20941;-84
2022/05/31 10:23:02;;;;;;;9.30;3.50;;;18.10;85.40;;;;;;5009777;28;20415;-84
2022/05/31 10:25:56;;;;;;;6.13;3.33;;;18.20;84.90;;;;;;5009960;28;20771;-83
2022/05/31 10:28:51;;;;;;;5.13;2.97;;;18.30;84.60;;;;;;5005617;28;20420;-84
2022/05/31 10:31:33;;;;;;;5.70;3.03;;;18.40;84.40;;;;;;5011441;28;20851;-84
2022/05/31 10:34:02;;;;;;;2.30;2.20;;;18.70;85.40;;;;;;5010170;28;20424;-84
2022/05/31 10:36:31;;;;;;;3.53;2.17;;;18.90;84.60;;;;;;5010235;28;20567;-85
2022/05/31 10:39:07;;;;;;;3.43;2.30;;;18.90;81.80;;;;;;5009985;28;20470;-84
2022/05/31 10:41:35;;;;;;;1.93;1.73;;;19.00;82.30;;;;;;5009849;28;20905;-84
2022/05/31 10:44:29;;;;;;;4.27;2.30;;;19.10;81.30;;;;;;5009845;28;20997;-84
2022/05/31 10:47:18;;;;;;;5.87;2.90;;;19.40;81.80;;;;;;5010718;28;20431;-85
2022/05/31 10:49:46;;;;;;;3.60;2.60;;;19.70;79.60;;;;;;5009455;28;20404;-86
2022/05/31 10:52:20;;;;;;;3.57;2.43;;;20.00;77.30;;;;;;5010091;28;20419;-85
2022/05/31 10:55:04;;;;;;;6.17;2.40;;;20.20;78.50;;;;;;5009628;28;20416;-85
2022/05/31 10:57:50;;;;;;;2.80;2.30;;;20.40;78.90;;;;;;5009933;28;20471;-84
2022/05/31 11:00:59;;;;;;;4.30;2.90;;;20.60;78.70;;;;;;5009669;28;20454;-85
2022/05/31 11:03:31;;;;;;;5.50;2.23;;;20.60;77.10;;;;;;4948125;28;20424;-84
2022/05/31 11:06:17;;;;;;;5.27;3.03;;;20.80;75.70;;;;;;5010005;28;20506;-85
2022/05/31 11:12:30;;;;;;;11.83;2.90;;;21.00;74.60;;;;;;5011369;28;20777;-84
2022/05/31 11:15:26;;;;;;;2.40;2.00;;;21.00;77.30;;;;;;4992117;28;20520;-85
2022/05/31 11:18:34;;;;;;;3.90;2.43;;;20.90;77.20;;;;;;5009247;28;20463;-84
2022/05/31 11:21:07;;;;;;;7.70;2.43;;;20.80;78.50;;;;;;4964114;28;20936;-84
2022/05/31 11:23:48;;;;;;;3.23;2.30;;;20.90;79.60;;;;;;5010205;28;20444;-84
2022/05/31 11:26:37;;;;;;;4.63;2.20;;;20.90;78.20;;;;;;5010509;28;20434;-85
2022/05/31 11:29:21;;;;;;;4.10;2.20;;;20.90;78.10;;;;;;5013427;28;20412;-84
2022/05/31 11:32:03;;;;;;;2.20;1.80;;;21.00;78.00;;;;;;5013102;28;20416;-84
2022/05/31 11:34:48;;;;;;;3.70;2.40;;;21.10;78.70;;;;;;5013183;28;20420;-84
2022/05/31 11:37:29;;;;;;;2.83;2.13;;;21.20;77.30;;;;;;5013190;28;20506;-84
2022/05/31 11:40:28;;;;;;;9.10;2.10;;;21.10;77.00;;;;;;5013277;28;20435;-85
2022/05/31 11:43:20;;;;;;;2.20;2.00;;;21.20;78.10;;;;;;5014370;28;20477;-86
2022/05/31 11:46:26;;;;;;;3.77;2.17;;;21.20;73.40;;;;;;5013033;28;20436;-85
2022/05/31 11:49:10;;;;;;;3.20;2.40;;;21.20;74.90;;;;;;5013010;28;20448;-85
2022/05/31 11:51:44;;;;;;;5.00;2.10;;;21.10;72.70;;;;;;5014258;28;20836;-85
2022/05/31 11:57:43;;;;;;;6.13;2.23;;;21.30;76.50;;;;;;4933832;29;20479;-84
2022/05/31 12:00:11;;;;;;;2.50;2.10;;;21.50;76.80;;;;;;5012389;28;20431;-85
2022/05/31 12:02:45;;;;;;;4.73;2.37;;;21.40;75.50;;;;;;5012222;28;20448;-84
2022/05/31 12:05:34;;;;;;;2.90;2.20;;;21.40;76.70;;;;;;5012635;28;20865;-84
2022/05/31 12:08:08;;;;;;;2.90;2.07;;;21.30;75.00;;;;;;5012647;28;20496;-84
2022/05/31 12:10:40;;;;;;;2.17;1.80;;;21.20;75.20;;;;;;5012245;28;20416;-84
2022/05/31 12:13:10;;;;;;;2.70;1.77;;;21.20;75.50;;;;;;5012196;28;20416;-84
2022/05/31 12:15:42;;;;;;;4.73;2.23;;;21.40;75.80;;;;;;5013332;28;20507;-85
2022/05/31 12:18:19;;;;;;;3.73;2.20;;;21.50;76.60;;;;;;5012503;28;20757;-84
2022/05/31 12:21:09;;;;;;;3.50;2.27;;;21.70;72.40;;;;;;5011885;28;20421;-84
2022/05/31 12:23:51;;;;;;;3.80;1.87;;;21.70;71.40;;;;;;5012513;28;20951;-84
2022/05/31 12:26:37;;;;;;;3.80;2.10;;;21.60;71.60;;;;;;5012425;28;20444;-84
2022/05/31 12:29:05;;;;;;;4.73;2.40;;;21.50;71.10;;;;;;5012004;28;20408;-84
2022/05/31 12:31:35;;;;;;;3.70;1.87;;;21.50;70.50;;;;;;5011930;28;20466;-84
2022/05/31 12:34:19;;;;;;;6.47;1.90;;;21.40;72.00;;;;;;5012281;28;20412;-84
2022/05/31 12:37:01;;;;;;;2.30;1.80;;;21.30;73.00;;;;;;5014620;28;20505;-83
2022/05/31 12:39:30;;;;;;;3.90;2.20;;;21.10;73.40;;;;;;5030834;28;21030;-84
2022/05/31 12:41:57;;;;;;;2.80;1.93;;;21.10;74.10;;;;;;5031303;28;20415;-84
2022/05/31 12:44:33;;;;;;;3.53;2.10;;;21.00;74.70;;;;;;5030059;28;20929;-84
2022/05/31 12:47:21;;;;;;;2.23;2.10;;;20.90;74.70;;;;;;5030890;28;20507;-84
2022/05/31 12:49:52;;;;;;;2.33;2.00;;;20.90;75.40;;;;;;5031136;28;20415;-86
2022/05/31 12:55:28;;;;;;;3.80;2.10;;;20.80;75.00;;;;;;5031727;28;20410;-85
2022/05/31 13:00:51;;;;;;;5.80;1.93;;;20.80;74.50;;;;;;5033097;28;20429;-85
2022/05/31 13:03:32;;;;;;;6.13;1.97;;;20.80;74.60;;;;;;5031085;28;20450;-85
2022/05/31 13:06:05;;;;;;;2.33;1.90;;;20.80;74.20;;;;;;5030841;28;20442;-86
2022/05/31 13:08:49;;;;;;;2.70;2.00;;;20.80;73.70;;;;;;5030824;28;20427;-86
2022/05/31 13:20:20;;;;;;;3.30;2.10;;;20.60;73.00;;;;;;5032338;28;20419;-85
2022/05/31 13:22:57;;;;;;;4.10;1.97;;;20.70;73.00;;;;;;5030753;28;20433;-85
2022/05/31 13:25:28;;;;;;;4.40;2.20;;;20.70;73.20;;;;;;5030229;28;20422;-85
2022/05/31 13:27:56;;;;;;;2.57;2.10;;;20.70;74.40;;;;;;5030397;28;20411;-83
2022/05/31 13:30:25;;;;;;;3.63;2.37;;;20.80;72.80;;;;;;5030097;28;20422;-84
2022/05/31 13:32:51;;;;;;;3.03;1.67;;;20.80;73.10;;;;;;5030362;28;20415;-83
2022/05/31 13:35:20;;;;;;;4.27;2.33;;;20.90;74.20;;;;;;5029863;28;21007;-82
2022/05/31 13:38:00;;;;;;;5.10;1.97;;;21.00;74.70;;;;;;5029659;28;21069;-83
2022/05/31 13:40:46;;;;;;;2.10;1.90;;;21.20;74.80;;;;;;5026686;28;20427;-83
2022/05/31 13:43:24;;;;;;;2.50;2.00;;;21.50;74.90;;;;;;5026965;28;20415;-83
2022/05/31 13:46:06;;;;;;;3.70;1.87;;;21.70;73.90;;;;;;5021480;28;20440;-83
2022/05/31 13:48:37;;;;;;;2.40;1.83;;;21.60;73.10;;;;;;5023971;28;20472;-83
2022/05/31 13:56:03;;;;;;;4.03;2.20;;;21.20;74.30;;;;;;5038728;28;20221;-84
2022/05/31 13:58:37;;;;;;;3.60;1.90;;;21.10;74.90;;;;;;5012886;28;20487;-84
2022/05/31 14:01:05;;;;;;;5.70;2.00;;;21.00;73.60;;;;;;5007859;28;20412;-84
2022/05/31 14:03:39;;;;;;;2.43;1.53;;;20.90;74.50;;;;;;5031060;28;20816;-84
2022/05/31 14:06:11;;;;;;;2.57;1.90;;;20.80;74.30;;;;;;5010824;28;20447;-84
2022/05/31 14:08:50;;;;;;;5.47;2.13;;;20.80;74.40;;;;;;5013190;28;20521;-84